上海/浦東 の空港の天気 - METARとTAF

上海浦東国際空港 ( ZSPD / PVG ) - 中国 上海市
飛行場実況気象(Metar)
観測時間10/22 00:00 CST (10/21 16:00 UTC)
風向・風速北北西 2m/s
視程4000m
天気現象もや
全天の4割程度の雲 雲底高度 400m
気温17℃
湿度88%
気圧1017hPa
METARZSPD 211600Z 34002MPS 4000 BR SCT013 17/15 Q1017 NOSIG
過去の天気等 Google飛行場航空写真 Wunderground天気予報

過去48時間のMETAR

飛行場予報(TAF)
発表時間: 10/21 17:21 CST (10/21 09:21 UTC)
予報対象時間: 21日20時 CST ~ 22日20時 CST
風向・風速北北西 4m/s
視程6000m
全天の8割程度の雲 雲底高度 460m
22日11時 CST ~ 22日13時 CST に徐々に
風向・風速北 8m/s 瞬間風速 13m/s
TAF ZSPD 210921Z 2112/2212 34004MPS 6000 BKN015 TX21/2206Z TN15/2121Z
BECMG 2203/2205 36008G13MPS